DNMM/LOS METAR and TAF weather

Enter ICAO airport designator
Station Type Date Time Source
DNMM METAR 2021/04/17 02:00 UTC NOAA

DNMM 170200Z VRB02KT 9999 FEW011 27/25 Q1009 NOSIG


Station Type Date Time Source
DNMM Decoded METAR 2021/04/17 02:00 UTC NOAA

Lagos / Ikeja, Nigeria (DNMM) 06-35N 003-20E 38M
Apr 16, 2021 - 10:00 PM EDT / 2021.04.17 0200 UTC
Wind: Variable at 2 MPH (2 KT):0
Visibility: greater than 7 mile(s):0
Sky conditions: mostly clear
Temperature: 80 F (27 C)
Dew Point: 77 F (25 C)
Relative Humidity: 88%
Pressure (altimeter): 29.80 in. Hg (1009 hPa)
ob: DNMM 170200Z VRB02KT 9999 FEW011 27/25 Q1009 NOSIG
cycle: 2

Station Type Date Time Source
DNMM TAF 2021/04/16 18:24 UTC NOAA

TAF TAF DNMM 161700Z 1618/1724 23010KT 9999 SCT011
TEMPO 1618/1624 TS SCT011 FEW020CB PROB30 1619/1623 06010KT 5000 -TSRA BKN008 FEW018CB
BECMG 1624/1702 VRB02KT
BECMG 1708/1710 22010KT BKN013
TEMPO 1715/1718 SCT013 FEW020CB
BECMG 1718/1720 SCT011
BECMG 1722/1724 VRB02KT

Example: see airport list